Time;durP1;ratioP1;P1;durP2;ratioP2;P2;SDS_P1;SDS_P2;PMS_P1;PMS_P2;Temp;Humidity;BMP_temperature;BMP_pressure;BME280_temperature;BME280_humidity;BME280_pressure;Samples;Min_cycle;Max_cycle;Signal;HPM_P1;HPM_P2
2021/04/25 00:00:49;;;;;;;4.47;2.43;;;19.60;28.20;;;;;;8404361;28;19908;-57
2021/04/25 00:04:49;;;;;;;4.50;2.83;;;19.60;28.20;;;;;;8401485;28;20547;-58
2021/04/25 00:08:50;;;;;;;6.67;2.60;;;19.60;28.20;;;;;;8401854;28;20193;-57
2021/04/25 00:12:50;;;;;;;3.60;2.63;;;19.60;28.20;;;;;;8399704;28;20029;-57
2021/04/25 00:16:51;;;;;;;4.77;2.63;;;19.50;28.20;;;;;;8401165;28;20493;-57
2021/04/25 00:20:52;;;;;;;4.37;2.93;;;19.60;28.20;;;;;;8405815;28;20064;-58
2021/04/25 00:24:52;;;;;;;3.97;2.60;;;19.50;28.20;;;;;;8399458;28;20040;-55
2021/04/25 00:28:53;;;;;;;3.97;2.47;;;19.50;28.20;;;;;;8400992;28;20040;-57
2021/04/25 00:32:53;;;;;;;3.03;2.63;;;19.50;28.20;;;;;;8399584;28;20119;-57
2021/04/25 00:36:54;;;;;;;2.83;2.30;;;19.50;28.20;;;;;;8405824;28;20028;-57
2021/04/25 00:40:54;;;;;;;2.90;2.47;;;19.50;28.20;;;;;;8400941;28;20036;-57
2021/04/25 00:44:55;;;;;;;3.13;2.50;;;19.50;28.20;;;;;;8394691;28;20473;-57
2021/04/25 00:48:55;;;;;;;5.17;2.80;;;19.50;28.20;;;;;;8395133;28;20064;-58
2021/04/25 00:52:57;;;;;;;2.77;2.57;;;19.50;28.20;;;;;;8400014;28;20401;-57
2021/04/25 00:56:58;;;;;;;3.75;2.50;;;19.40;28.20;;;;;;8393602;28;20068;-57
2021/04/25 01:00:59;;;;;;;3.90;2.80;;;19.40;28.20;;;;;;8395318;28;20516;-57
2021/04/25 01:05:00;;;;;;;3.53;2.60;;;19.40;28.20;;;;;;8394575;28;20021;-57
2021/04/25 01:09:00;;;;;;;4.73;2.20;;;19.40;28.20;;;;;;8393314;28;20109;-57
2021/04/25 01:13:01;;;;;;;4.30;2.60;;;19.40;28.20;;;;;;8399417;28;20456;-57
2021/04/25 01:17:02;;;;;;;3.87;2.53;;;19.40;28.20;;;;;;8395088;28;20520;-58
2021/04/25 01:21:04;;;;;;;3.67;2.58;;;19.40;28.20;;;;;;8392883;28;20271;-57
2021/04/25 01:25:07;;;;;;;4.50;2.60;;;19.40;28.20;;;;;;8394377;28;20500;-57
2021/04/25 01:29:08;;;;;;;4.22;2.55;;;19.40;28.20;;;;;;8398573;28;20405;-57
2021/04/25 01:33:08;;;;;;;4.53;2.90;;;19.40;28.20;;;;;;8392623;28;20032;-57
2021/04/25 01:37:09;;;;;;;4.37;2.87;;;19.40;28.30;;;;;;8394265;28;20045;-58
2021/04/25 01:41:09;;;;;;;3.20;2.67;;;19.30;28.20;;;;;;8394056;28;20036;-58
2021/04/25 01:45:16;;;;;;;3.37;2.47;;;19.30;28.20;;;;;;8392225;28;20470;-57
2021/04/25 01:49:16;;;;;;;3.72;2.45;;;19.30;28.30;;;;;;8398022;28;20049;-58
2021/04/25 01:53:17;;;;;;;2.57;2.27;;;19.30;28.30;;;;;;8393651;28;20033;-57
2021/04/25 01:57:17;;;;;;;3.37;2.40;;;19.30;28.30;;;;;;8391655;28;20170;-57
2021/04/25 02:01:18;;;;;;;2.93;2.37;;;19.30;28.30;;;;;;8393380;28;20389;-57
2021/04/25 02:05:19;;;;;;;3.30;2.67;;;19.30;28.30;;;;;;8397514;28;20028;-57
2021/04/25 02:09:20;;;;;;;4.05;2.80;;;19.20;28.30;;;;;;8391330;28;20052;-57
2021/04/25 02:13:21;;;;;;;3.27;2.20;;;19.20;28.30;;;;;;8393025;28;20607;-57
2021/04/25 02:17:21;;;;;;;5.50;2.60;;;19.20;28.30;;;;;;8392749;28;20143;-57
2021/04/25 02:21:22;;;;;;;3.70;3.03;;;19.20;28.30;;;;;;8395437;28;20120;-57
2021/04/25 02:25:23;;;;;;;3.23;2.47;;;19.20;28.30;;;;;;8392504;28;20082;-58
2021/04/25 02:29:24;;;;;;;3.92;2.50;;;19.20;28.30;;;;;;8392161;28;20523;-56
2021/04/25 02:33:24;;;;;;;3.20;2.17;;;19.20;28.30;;;;;;8390394;28;20036;-57
2021/04/25 02:37:25;;;;;;;3.67;2.33;;;19.20;28.30;;;;;;8391961;28;20036;-57
2021/04/25 02:41:27;;;;;;;4.73;2.30;;;19.20;28.30;;;;;;8396531;28;20037;-57
2021/04/25 02:45:28;;;;;;;4.55;2.50;;;19.20;28.30;;;;;;8390032;28;20064;-57
2021/04/25 02:49:29;;;;;;;2.85;2.60;;;19.20;28.30;;;;;;8375715;28;20049;-57
2021/04/25 02:53:29;;;;;;;2.73;2.40;;;19.10;28.30;;;;;;8365652;28;20491;-57
2021/04/25 02:57:30;;;;;;;3.80;2.27;;;19.10;28.30;;;;;;8394396;28;20025;-57
2021/04/25 03:01:30;;;;;;;3.80;2.40;;;19.10;28.30;;;;;;8391524;28;20508;-58
2021/04/25 03:05:31;;;;;;;4.07;2.50;;;19.10;28.30;;;;;;8391093;28;20048;-57
2021/04/25 03:09:32;;;;;;;4.97;2.75;;;19.10;28.30;;;;;;8389255;28;20078;-57
2021/04/25 03:13:32;;;;;;;3.07;2.57;;;19.10;28.30;;;;;;8392327;28;20025;-57
2021/04/25 03:17:33;;;;;;;4.40;2.47;;;19.10;28.30;;;;;;8394608;28;20037;-56
2021/04/25 03:21:34;;;;;;;3.10;2.35;;;19.00;28.40;;;;;;8389531;28;20382;-57
2021/04/25 03:25:35;;;;;;;3.73;3.00;;;19.00;28.40;;;;;;8376905;28;20038;-57
2021/04/25 03:29:35;;;;;;;2.73;2.30;;;19.00;28.40;;;;;;8380784;28;20040;-58
2021/04/25 03:33:36;;;;;;;4.77;2.77;;;19.00;28.40;;;;;;8393635;28;20037;-58
2021/04/25 03:37:37;;;;;;;3.47;2.40;;;19.00;28.30;;;;;;8373050;28;20029;-57
2021/04/25 03:41:38;;;;;;;3.70;2.33;;;19.00;28.30;;;;;;8390199;28;20430;-57
2021/04/25 03:45:38;;;;;;;2.53;2.17;;;19.00;28.30;;;;;;8389098;28;20040;-58
2021/04/25 03:49:39;;;;;;;2.83;2.37;;;19.00;28.30;;;;;;8394880;28;20044;-56
2021/04/25 03:53:40;;;;;;;3.00;2.50;;;19.00;28.40;;;;;;8390346;28;20055;-56
2021/04/25 03:57:41;;;;;;;3.73;2.20;;;19.00;28.30;;;;;;8388946;28;20489;-57
2021/04/25 04:01:41;;;;;;;2.83;2.50;;;19.00;28.30;;;;;;8390736;28;20033;-58
2021/04/25 04:05:42;;;;;;;3.77;2.33;;;19.00;28.40;;;;;;8389304;28;20039;-57
2021/04/25 04:09:42;;;;;;;3.00;2.17;;;19.00;28.30;;;;;;8359888;28;20470;-58
2021/04/25 04:13:43;;;;;;;3.07;2.33;;;19.00;28.30;;;;;;8382694;28;20029;-57
2021/04/25 04:17:43;;;;;;;4.17;2.40;;;19.00;28.40;;;;;;8390411;28;20037;-57
2021/04/25 04:21:44;;;;;;;2.70;2.10;;;19.00;28.40;;;;;;8394314;28;20036;-58
2021/04/25 04:25:44;;;;;;;4.10;2.80;;;19.00;28.40;;;;;;8400753;28;20492;-57
2021/04/25 04:29:45;;;;;;;3.30;2.23;;;19.00;28.40;;;;;;8396060;28;20052;-56
2021/04/25 04:33:45;;;;;;;3.43;2.10;;;19.00;28.40;;;;;;8375983;28;20045;-57
2021/04/25 04:37:46;;;;;;;3.50;2.77;;;19.00;28.40;;;;;;8371635;28;20120;-57
2021/04/25 04:41:47;;;;;;;3.63;2.50;;;19.00;28.40;;;;;;8400382;28;20036;-58
2021/04/25 04:45:47;;;;;;;2.67;2.20;;;18.90;28.40;;;;;;8393674;28;20033;-58
2021/04/25 04:49:48;;;;;;;3.70;2.63;;;18.90;28.30;;;;;;8395398;28;20056;-56
2021/04/25 04:53:49;;;;;;;3.30;2.30;;;18.90;28.40;;;;;;8395351;28;20098;-56
2021/04/25 04:57:49;;;;;;;3.03;2.47;;;18.90;28.40;;;;;;8393840;28;20037;-58
2021/04/25 05:01:50;;;;;;;4.20;2.40;;;18.90;28.40;;;;;;8383505;28;20489;-57
2021/04/25 05:05:50;;;;;;;3.70;2.53;;;18.90;28.40;;;;;;8386535;28;20067;-57
2021/04/25 05:09:51;;;;;;;3.50;2.23;;;18.90;28.40;;;;;;8393202;28;20102;-57
2021/04/25 05:13:51;;;;;;;2.50;2.30;;;18.90;28.40;;;;;;8395038;28;20509;-57
2021/04/25 05:17:52;;;;;;;3.43;2.33;;;18.90;28.40;;;;;;8399605;28;20036;-56
2021/04/25 05:21:52;;;;;;;4.57;2.83;;;18.90;28.40;;;;;;8393283;28;20097;-57
2021/04/25 05:25:53;;;;;;;3.70;2.60;;;18.90;28.40;;;;;;8394447;28;20056;-57
2021/04/25 05:29:54;;;;;;;3.33;2.50;;;18.90;28.40;;;;;;8392032;28;20474;-57
2021/04/25 05:33:54;;;;;;;4.83;2.20;;;18.90;28.40;;;;;;8396390;28;20040;-57
2021/04/25 05:37:55;;;;;;;4.33;2.63;;;18.80;28.40;;;;;;8396282;28;20036;-58
2021/04/25 05:41:55;;;;;;;3.00;2.50;;;18.90;28.40;;;;;;8391965;28;20078;-56
2021/04/25 05:45:56;;;;;;;3.03;2.47;;;18.90;28.40;;;;;;8393600;28;20047;-58
2021/04/25 05:49:57;;;;;;;3.50;2.50;;;18.90;28.40;;;;;;8393394;28;20044;-58
2021/04/25 05:53:57;;;;;;;3.00;2.00;;;18.90;28.40;;;;;;8396029;28;20102;-57
2021/04/25 05:57:58;;;;;;;4.63;2.33;;;18.90;28.80;;;;;;8367196;28;20117;-57
2021/04/25 06:01:58;;;;;;;1.93;1.70;;;18.90;28.40;;;;;;8377600;28;20056;-58
2021/04/25 06:05:59;;;;;;;3.50;2.40;;;18.90;28.30;;;;;;8385149;28;20021;-57
2021/04/25 06:09:59;;;;;;;3.80;2.73;;;18.90;28.30;;;;;;8364427;28;20102;-56
2021/04/25 06:14:00;;;;;;;3.87;2.40;;;18.90;28.30;;;;;;8390416;28;20032;-58
2021/04/25 06:18:03;;;;;;;3.22;2.53;;;19.00;28.20;;;;;;8371117;28;20047;-57
2021/04/25 06:22:08;;;;;;;2.80;2.10;;;19.00;28.20;;;;;;8370560;28;20481;-58
2021/04/25 06:26:09;;;;;;;3.50;2.20;;;19.10;28.10;;;;;;8392570;28;20067;-58
2021/04/25 06:30:11;;;;;;;2.53;2.07;;;19.10;28.00;;;;;;8395075;28;20036;-58
2021/04/25 06:34:12;;;;;;;2.40;2.20;;;19.20;28.00;;;;;;8392279;28;20388;-58
2021/04/25 06:38:13;;;;;;;3.93;2.47;;;19.20;28.00;;;;;;8392322;28;20029;-58
2021/04/25 06:42:14;;;;;;;3.03;2.40;;;19.20;27.90;;;;;;8389420;28;20374;-58
2021/04/25 06:46:14;;;;;;;3.67;2.40;;;19.30;27.80;;;;;;8396334;28;20037;-58
2021/04/25 06:50:16;;;;;;;3.37;2.17;;;19.50;27.70;;;;;;8391645;28;20114;-58
2021/04/25 06:54:17;;;;;;;3.50;2.22;;;19.60;27.60;;;;;;8389983;28;20055;-58
2021/04/25 06:58:17;;;;;;;5.60;2.73;;;19.70;27.50;;;;;;8391649;28;20060;-58
2021/04/25 07:02:18;;;;;;;3.20;2.30;;;19.80;27.40;;;;;;8394764;28;20036;-58
2021/04/25 07:06:18;;;;;;;4.13;2.70;;;19.90;27.20;;;;;;8391132;28;20040;-58
2021/04/25 07:10:19;;;;;;;2.87;2.20;;;19.90;27.20;;;;;;8368742;28;20087;-58
2021/04/25 07:14:20;;;;;;;3.38;2.30;;;19.90;27.30;;;;;;8371728;28;20033;-58
2021/04/25 07:18:20;;;;;;;2.63;2.27;;;19.80;27.20;;;;;;8389092;28;20040;-58
2021/04/25 07:22:21;;;;;;;4.47;2.43;;;19.80;27.40;;;;;;8395660;28;20032;-58
2021/04/25 07:26:22;;;;;;;3.10;2.40;;;19.70;27.40;;;;;;8391254;28;20113;-58
2021/04/25 07:30:23;;;;;;;5.30;2.43;;;19.70;27.60;;;;;;8389212;28;20044;-57
2021/04/25 07:34:25;;;;;;;4.88;2.53;;;19.60;27.60;;;;;;8384104;28;20029;-58
2021/04/25 07:38:26;;;;;;;2.33;2.10;;;19.60;27.60;;;;;;8362553;28;20033;-58
2021/04/25 07:42:27;;;;;;;;;;;19.70;27.60;;;;;;8387611;28;20063;-58
2021/04/25 07:46:27;;;;;;;3.35;2.60;;;19.70;27.60;;;;;;8391276;28;19913;-58
2021/04/25 07:50:28;;;;;;;3.90;2.63;;;19.60;27.60;;;;;;8390763;28;20048;-58
2021/04/25 07:54:29;;;;;;;4.27;2.30;;;19.50;27.70;;;;;;8393354;28;20508;-58
2021/04/25 07:58:30;;;;;;;3.65;2.53;;;19.60;27.80;;;;;;8401615;28;20052;-58
2021/04/25 08:02:30;;;;;;;3.07;2.27;;;19.50;27.90;;;;;;8397371;28;20029;-58
2021/04/25 08:06:31;;;;;;;5.50;2.60;;;19.50;27.90;;;;;;8395226;28;20044;-58
2021/04/25 08:10:31;;;;;;;3.77;2.43;;;19.50;28.00;;;;;;8396790;28;20041;-58
2021/04/25 08:14:32;;;;;;;3.83;3.20;;;19.40;28.00;;;;;;8401141;28;20447;-58
2021/04/25 08:18:33;;;;;;;5.30;2.53;;;19.40;28.10;;;;;;8395047;28;20037;-57
2021/04/25 08:22:34;;;;;;;4.17;2.57;;;19.40;28.20;;;;;;8396664;28;20400;-55
2021/04/25 08:26:34;;;;;;;4.17;2.43;;;19.40;28.20;;;;;;8395512;28;20117;-58
2021/04/25 08:30:36;;;;;;;3.90;2.20;;;19.40;28.20;;;;;;8398804;28;20131;-58
2021/04/25 08:34:36;;;;;;;3.88;2.45;;;19.40;28.20;;;;;;8395973;28;20067;-58
2021/04/25 08:38:37;;;;;;;2.73;2.00;;;19.40;28.20;;;;;;8395792;28;20028;-58
2021/04/25 08:42:37;;;;;;;3.37;2.40;;;19.40;28.20;;;;;;8394007;28;20048;-58
2021/04/25 08:46:40;;;;;;;4.60;2.23;;;19.40;28.30;;;;;;8395509;28;20078;-56
2021/04/25 08:50:41;;;;;;;3.45;2.42;;;19.40;28.30;;;;;;8376686;28;20077;-57
2021/04/25 08:54:42;;;;;;;2.85;2.58;;;19.40;28.30;;;;;;8391575;28;20039;-57
2021/04/25 08:58:43;;;;;;;3.60;2.92;;;19.40;28.30;;;;;;8395235;28;20488;-56
2021/04/25 09:02:43;;;;;;;2.40;1.98;;;19.40;28.30;;;;;;8395377;28;20097;-59
2021/04/25 09:07:04;;;;;;;3.07;2.40;;;19.50;28.40;;;;;;8396808;28;20033;-59
2021/04/25 09:11:04;;;;;;;4.30;2.35;;;19.50;28.40;;;;;;8395030;28;20048;-58
2021/04/25 09:15:11;;;;;;;2.90;2.40;;;19.50;28.40;;;;;;8393009;28;20392;-59
2021/04/25 09:19:13;;;;;;;3.85;2.50;;;19.50;28.40;;;;;;8394613;28;20094;-57
2021/04/25 09:23:22;;;;;;;3.10;2.40;;;19.50;28.40;;;;;;8393144;28;20029;-57
2021/04/25 09:27:25;;;;;;;3.65;2.30;;;19.50;28.40;;;;;;8397155;28;20040;-57
2021/04/25 09:31:25;;;;;;;3.00;2.10;;;19.60;28.40;;;;;;8394256;28;20078;-57
2021/04/25 09:35:26;;;;;;;2.67;2.13;;;19.60;28.40;;;;;;8394074;28;20021;-57
2021/04/25 09:39:26;;;;;;;3.07;2.17;;;19.60;28.40;;;;;;8392279;28;20040;-57
2021/04/25 09:43:30;;;;;;;3.83;2.50;;;19.60;28.40;;;;;;8398365;28;20047;-57
2021/04/25 09:47:33;;;;;;;3.28;2.10;;;19.60;28.40;;;;;;8393057;28;20090;-57
2021/04/25 09:51:42;;;;;;;3.10;2.22;;;19.60;28.40;;;;;;8391791;28;20400;-57
2021/04/25 09:55:42;;;;;;;4.68;2.30;;;19.60;28.40;;;;;;8393570;28;20093;-57
2021/04/25 09:59:50;;;;;;;3.47;2.23;;;19.70;28.40;;;;;;8393344;28;20064;-57
2021/04/25 10:03:50;;;;;;;3.88;2.70;;;19.70;28.40;;;;;;8395872;28;20028;-59
2021/04/25 10:07:51;;;;;;;3.33;2.37;;;19.70;28.40;;;;;;8392987;28;20044;-58
2021/04/25 10:11:55;;;;;;;4.27;2.80;;;19.70;28.40;;;;;;8392922;28;20120;-57
2021/04/25 10:15:56;;;;;;;3.28;2.20;;;19.70;28.30;;;;;;8391262;28;20041;-56
2021/04/25 10:19:58;;;;;;;3.35;2.17;;;19.80;28.30;;;;;;8395572;28;20059;-56
2021/04/25 10:23:59;;;;;;;2.75;2.30;;;19.80;28.30;;;;;;8368839;28;20029;-56
2021/04/25 10:28:30;;;;;;;2.90;1.93;;;19.80;28.30;;;;;;8392215;28;20050;-57
2021/04/25 10:32:31;;;;;;;3.63;2.50;;;19.90;28.30;;;;;;8386985;28;20025;-57
2021/04/25 10:36:44;;;;;;;6.95;2.17;;;19.90;28.30;;;;;;8390311;28;20029;-57
2021/04/25 10:40:47;;;;;;;2.72;2.15;;;19.90;28.30;;;;;;8395083;28;20043;-58
2021/04/25 10:45:02;;;;;;;3.60;2.13;;;19.90;28.70;;;;;;8395248;28;20037;-57
2021/04/25 10:49:31;;;;;;;3.00;2.30;;;19.90;28.30;;;;;;8390301;28;20136;-58
2021/04/25 10:53:36;;;;;;;2.35;1.95;;;20.00;28.30;;;;;;8391540;28;20479;-57
2021/04/25 10:58:02;;;;;;;2.80;2.10;;;20.00;28.30;;;;;;8389942;28;20048;-57
2021/04/25 11:02:03;;;;;;;2.58;2.08;;;20.00;28.30;;;;;;8391348;28;20155;-57
2021/04/25 11:06:22;;;;;;;3.30;2.28;;;20.00;28.30;;;;;;8378026;28;20441;-57
2021/04/25 11:10:43;;;;;;;2.63;1.90;;;20.10;28.30;;;;;;8362350;28;20045;-57
2021/04/25 11:14:43;;;;;;;2.45;1.95;;;20.10;28.30;;;;;;8381549;28;20028;-57
2021/04/25 11:19:02;;;;;;;2.60;2.13;;;20.10;28.30;;;;;;8389570;28;20355;-59
2021/04/25 11:23:03;;;;;;;2.85;2.20;;;20.10;28.30;;;;;;8391022;28;20477;-57
2021/04/25 11:27:06;;;;;;;3.30;2.40;;;20.10;28.30;;;;;;8393407;28;20059;-57
2021/04/25 11:31:07;;;;;;;3.75;2.08;;;20.10;28.30;;;;;;8390970;28;20043;-57
2021/04/25 11:35:11;;;;;;;2.20;1.87;;;20.20;28.30;;;;;;8390920;28;20485;-57
2021/04/25 11:39:17;;;;;;;2.75;2.40;;;20.20;28.30;;;;;;8388723;28;20032;-58
2021/04/25 11:43:18;;;;;;;2.13;1.80;;;20.20;28.70;;;;;;8390834;28;20037;-57
2021/04/25 11:47:19;;;;;;;2.90;2.10;;;20.20;28.30;;;;;;8395077;28;20035;-57
2021/04/25 11:51:19;;;;;;;2.72;2.10;;;20.20;28.30;;;;;;8364848;28;20409;-57
2021/04/25 11:55:20;;;;;;;2.30;2.10;;;20.20;28.30;;;;;;8371457;28;20060;-57
2021/04/25 11:59:21;;;;;;;2.57;2.17;;;20.30;28.30;;;;;;8390399;28;20077;-57
2021/04/25 12:03:21;;;;;;;3.10;2.30;;;20.30;28.30;;;;;;8393228;28;20283;-57
2021/04/25 12:07:45;;;;;;;3.67;2.10;;;20.30;28.30;;;;;;8390153;28;20136;-57
2021/04/25 12:11:46;;;;;;;2.60;1.83;;;20.30;28.30;;;;;;8390313;28;20052;-58
2021/04/25 12:15:48;;;;;;;2.77;2.27;;;20.30;28.30;;;;;;8388471;28;20128;-57
2021/04/25 12:19:49;;;;;;;2.83;2.15;;;20.30;28.30;;;;;;8390484;28;20040;-57
2021/04/25 12:23:52;;;;;;;2.88;2.28;;;20.40;28.30;;;;;;8394519;28;20044;-57
2021/04/25 12:27:55;;;;;;;2.83;2.20;;;20.30;28.20;;;;;;8388753;28;20386;-56
2021/04/25 12:31:56;;;;;;;3.78;2.05;;;20.40;28.30;;;;;;8390274;28;20054;-57
2021/04/25 12:36:04;;;;;;;2.23;1.83;;;20.40;28.30;;;;;;8388314;28;20087;-57
2021/04/25 12:40:25;;;;;;;3.25;2.20;;;20.50;28.30;;;;;;8396160;28;20504;-57
2021/04/25 12:44:37;;;;;;;2.70;1.85;;;20.40;28.20;;;;;;8398879;28;20037;-57
2021/04/25 12:48:40;;;;;;;2.55;2.10;;;20.50;28.30;;;;;;8393232;28;20049;-57
2021/04/25 12:52:40;;;;;;;2.10;1.90;;;20.50;28.30;;;;;;8395560;28;20029;-57
2021/04/25 12:56:41;;;;;;;3.10;1.90;;;20.50;28.30;;;;;;8395648;28;20055;-59
2021/04/25 13:00:42;;;;;;;2.83;2.00;;;20.60;28.30;;;;;;8398228;28;20040;-57
2021/04/25 13:04:44;;;;;;;2.77;2.20;;;20.60;28.30;;;;;;8395207;28;20040;-57
2021/04/25 13:08:45;;;;;;;2.58;1.88;;;20.60;28.30;;;;;;8395126;28;20128;-57
2021/04/25 13:12:53;;;;;;;3.43;2.00;;;20.60;28.20;;;;;;8392862;28;20535;-59
2021/04/25 13:16:59;;;;;;;2.85;2.10;;;20.60;28.30;;;;;;8395277;28;20557;-57
2021/04/25 13:21:00;;;;;;;2.17;1.98;;;20.60;28.20;;;;;;8396328;28;20031;-57
2021/04/25 13:25:00;;;;;;;2.40;1.80;;;20.60;28.20;;;;;;8394546;28;20028;-58
2021/04/25 13:29:01;;;;;;;2.43;2.17;;;20.60;28.70;;;;;;8394324;28;20049;-57
2021/04/25 13:33:03;;;;;;;2.50;2.20;;;20.60;28.30;;;;;;8392696;28;20085;-58
2021/04/25 13:37:06;;;;;;;3.03;2.22;;;20.60;28.20;;;;;;8399139;28;20434;-57
2021/04/25 13:41:06;;;;;;;2.72;1.92;;;20.60;28.20;;;;;;8393223;28;20044;-57
2021/04/25 13:45:07;;;;;;;3.07;2.03;;;20.60;28.10;;;;;;8392238;27;20495;-57
2021/04/25 13:49:08;;;;;;;3.10;2.10;;;20.70;28.20;;;;;;8393584;28;20044;-57
2021/04/25 13:53:09;;;;;;;2.20;2.00;;;20.70;28.10;;;;;;8398081;28;20033;-57
2021/04/25 13:57:09;;;;;;;2.50;2.00;;;20.70;28.20;;;;;;8391454;28;20063;-57
2021/04/25 14:01:11;;;;;;;5.50;2.20;;;20.70;28.00;;;;;;8393897;28;20037;-58
2021/04/25 14:05:13;;;;;;;3.88;2.33;;;20.70;28.20;;;;;;8393787;28;20366;-58
2021/04/25 14:09:14;;;;;;;;;;;20.70;28.00;;;;;;8392045;28;20390;-57
2021/04/25 14:13:15;;;;;;;3.83;1.93;;;20.70;28.10;;;;;;8397627;28;19912;-58
2021/04/25 14:17:15;;;;;;;4.15;2.30;;;20.70;28.00;;;;;;8392887;28;20041;-58
2021/04/25 14:21:16;;;;;;;2.73;1.87;;;20.70;28.10;;;;;;8391187;28;20034;-58
2021/04/25 14:25:18;;;;;;;2.60;2.20;;;20.70;28.10;;;;;;8392861;28;20032;-58
2021/04/25 14:29:19;;;;;;;;;;;20.70;28.10;;;;;;8397449;28;20052;-58
2021/04/25 14:33:20;;;;;;;3.20;2.30;;;20.70;27.90;;;;;;8390984;28;19917;-58
2021/04/25 14:37:20;;;;;;;2.93;2.27;;;20.80;28.00;;;;;;8392658;28;20033;-58
2021/04/25 14:41:21;;;;;;;3.70;2.63;;;20.80;28.00;;;;;;8392298;28;20142;-58
2021/04/25 14:45:23;;;;;;;2.03;1.83;;;20.80;28.00;;;;;;8386785;28;20037;-58
2021/04/25 14:49:24;;;;;;;3.17;2.03;;;20.80;28.20;;;;;;8363522;28;20047;-58
2021/04/25 14:53:25;;;;;;;2.22;2.03;;;20.80;27.80;;;;;;8379868;28;20033;-58
2021/04/25 14:57:25;;;;;;;3.07;2.27;;;20.80;27.90;;;;;;8390131;28;20033;-58
2021/04/25 15:01:26;;;;;;;4.60;2.47;;;20.80;27.90;;;;;;8390640;28;20040;-58
2021/04/25 15:05:26;;;;;;;3.00;2.30;;;20.80;27.80;;;;;;8395447;28;20047;-58
2021/04/25 15:09:27;;;;;;;3.10;2.10;;;20.80;27.90;;;;;;8389272;28;20135;-59
2021/04/25 15:13:28;;;;;;;4.93;2.57;;;20.80;28.00;;;;;;8392085;28;20111;-58
2021/04/25 15:17:28;;;;;;;3.57;2.30;;;20.80;27.90;;;;;;8391524;28;20036;-58
2021/04/25 15:21:29;;;;;;;4.57;2.83;;;20.90;27.40;;;;;;8394105;28;20271;-58
2021/04/25 15:25:30;;;;;;;3.63;2.28;;;20.80;27.60;;;;;;8391486;28;20490;-58
2021/04/25 15:29:30;;;;;;;2.58;2.30;;;20.90;28.00;;;;;;8369218;28;20049;-58
2021/04/25 15:33:32;;;;;;;2.47;2.00;;;20.90;27.90;;;;;;8368672;28;20037;-58
2021/04/25 15:37:33;;;;;;;3.85;2.55;;;20.90;27.90;;;;;;8389025;28;20117;-57
2021/04/25 15:41:34;;;;;;;;;;;20.90;27.60;;;;;;8362805;28;20040;-59
2021/04/25 15:45:38;;;;;;;3.40;2.03;;;20.80;27.80;;;;;;8382401;28;20373;-59
2021/04/25 15:49:39;;;;;;;4.22;2.53;;;20.90;27.70;;;;;;8390759;28;20060;-59
2021/04/25 15:53:39;;;;;;;3.20;2.50;;;20.90;27.50;;;;;;8383017;28;20041;-58
2021/04/25 15:57:40;;;;;;;3.70;2.37;;;20.80;27.90;;;;;;8360396;28;20302;-59
2021/04/25 16:01:41;;;;;;;3.08;2.40;;;20.90;27.50;;;;;;8357793;27;20086;-58
2021/04/25 16:05:41;;;;;;;3.63;2.60;;;20.80;27.80;;;;;;8378379;28;20029;-57
2021/04/25 16:09:42;;;;;;;3.93;2.23;;;20.90;27.60;;;;;;8388696;28;20045;-58
2021/04/25 16:13:43;;;;;;;2.63;2.00;;;20.90;27.80;;;;;;8392831;28;20493;-57
2021/04/25 16:17:43;;;;;;;3.43;2.57;;;20.80;27.60;;;;;;8401122;28;20036;-58
2021/04/25 16:21:44;;;;;;;2.83;2.22;;;20.80;27.60;;;;;;8394833;28;20106;-58
2021/04/25 16:25:44;;;;;;;3.90;2.63;;;20.90;27.80;;;;;;8396524;28;20025;-57
2021/04/25 16:29:45;;;;;;;3.67;2.30;;;20.90;27.70;;;;;;8392599;28;20045;-59
2021/04/25 16:33:46;;;;;;;3.73;2.57;;;20.90;27.60;;;;;;8341031;28;20390;-59
2021/04/25 16:37:47;;;;;;;2.72;2.28;;;20.90;27.10;;;;;;8391138;28;20071;-58
2021/04/25 16:41:47;;;;;;;5.13;2.33;;;20.90;27.70;;;;;;8395027;28;20035;-57
2021/04/25 16:45:48;;;;;;;3.07;2.50;;;20.80;27.60;;;;;;8394174;28;20481;-59
2021/04/25 16:49:48;;;;;;;4.10;2.10;;;20.80;27.10;;;;;;8399906;28;20104;-58
2021/04/25 16:53:49;;;;;;;3.27;2.27;;;20.90;26.90;;;;;;8364034;28;20283;-58
2021/04/25 16:57:50;;;;;;;3.33;2.30;;;20.90;26.60;;;;;;8382647;28;20515;-58
2021/04/25 17:01:50;;;;;;;4.30;2.40;;;20.80;27.50;;;;;;8395474;28;20071;-58
2021/04/25 17:05:51;;;;;;;6.77;4.53;;;20.80;27.10;;;;;;8394607;28;20477;-58
2021/04/25 17:09:52;;;;;;;6.23;2.93;;;20.80;26.90;;;;;;8397950;28;20036;-59
2021/04/25 17:13:52;;;;;;;4.43;2.70;;;20.90;27.40;;;;;;8370578;27;20124;-57
2021/04/25 17:17:53;;;;;;;4.13;2.60;;;20.80;27.30;;;;;;8375869;28;20068;-55
2021/04/25 17:21:54;;;;;;;2.80;1.98;;;20.90;27.50;;;;;;8394369;28;20040;-58
2021/04/25 17:25:54;;;;;;;4.27;2.60;;;20.80;27.20;;;;;;8398462;28;20052;-57
2021/04/25 17:29:55;;;;;;;4.03;2.73;;;20.80;27.60;;;;;;8364700;27;20045;-59
2021/04/25 17:33:56;;;;;;;3.30;2.43;;;20.80;27.50;;;;;;8380492;28;20127;-58
2021/04/25 17:37:56;;;;;;;4.23;2.20;;;20.80;27.30;;;;;;8394501;28;20536;-58
2021/04/25 17:41:57;;;;;;;5.73;2.43;;;20.80;27.50;;;;;;8396649;28;20041;-58
2021/04/25 17:45:57;;;;;;;3.53;2.77;;;20.80;27.60;;;;;;8370063;28;20421;-58
2021/04/25 17:49:58;;;;;;;3.03;2.60;;;20.80;27.70;;;;;;8393832;28;20075;-59
2021/04/25 17:54:01;;;;;;;2.33;2.10;;;20.80;27.70;;;;;;8380367;28;20061;-60
2021/04/25 17:58:01;;;;;;;3.38;2.45;;;20.80;27.70;;;;;;8363790;28;20036;-57
2021/04/25 18:02:02;;;;;;;3.20;2.50;;;20.80;27.80;;;;;;8398080;28;20448;-57
2021/04/25 18:06:05;;;;;;;2.90;2.20;;;20.80;27.80;;;;;;8391538;28;20353;-59
2021/04/25 18:10:08;;;;;;;6.07;2.78;;;20.80;27.90;;;;;;8393264;28;20151;-58
2021/04/25 18:14:09;;;;;;;4.22;2.30;;;20.70;27.70;;;;;;8393089;28;20028;-57
2021/04/25 18:18:10;;;;;;;4.83;2.57;;;20.70;27.90;;;;;;8395990;28;20046;-59
2021/04/25 18:22:10;;;;;;;2.93;2.20;;;20.80;27.90;;;;;;8392789;28;20089;-58
2021/04/25 18:26:11;;;;;;;3.23;2.57;;;20.70;27.90;;;;;;8391997;28;20096;-59
2021/04/25 18:30:16;;;;;;;4.40;2.80;;;20.70;27.90;;;;;;8390882;28;20051;-59
2021/04/25 18:34:17;;;;;;;2.67;2.47;;;20.70;27.90;;;;;;8391575;28;20036;-57
2021/04/25 18:38:17;;;;;;;4.97;2.65;;;20.70;28.00;;;;;;8362401;28;20437;-58
2021/04/25 18:42:18;;;;;;;3.53;2.90;;;20.70;28.00;;;;;;8382861;28;20029;-57
2021/04/25 18:46:19;;;;;;;4.07;2.93;;;20.70;28.00;;;;;;8377572;28;20037;-58
2021/04/25 18:50:20;;;;;;;3.33;2.57;;;20.70;28.10;;;;;;8364427;28;20047;-57
2021/04/25 18:54:21;;;;;;;4.80;2.63;;;20.70;28.10;;;;;;8394491;28;20283;-58
2021/04/25 18:58:22;;;;;;;3.13;2.28;;;20.70;28.10;;;;;;8391629;28;20054;-59
2021/04/25 19:02:22;;;;;;;4.03;2.47;;;20.70;28.10;;;;;;8391664;28;20040;-58
2021/04/25 19:06:23;;;;;;;3.57;2.27;;;20.70;28.10;;;;;;8389662;28;20040;-58
2021/04/25 19:10:24;;;;;;;3.15;2.45;;;20.70;28.10;;;;;;8396160;28;20048;-59
2021/04/25 19:14:24;;;;;;;2.83;2.27;;;20.70;28.20;;;;;;8359487;28;20033;-58
2021/04/25 19:18:25;;;;;;;2.60;2.23;;;20.60;28.10;;;;;;8380105;28;20505;-57
2021/04/25 19:22:26;;;;;;;4.65;2.72;;;20.60;28.00;;;;;;8390771;28;20139;-58
2021/04/25 19:26:27;;;;;;;3.78;2.55;;;20.60;28.00;;;;;;8391443;28;20109;-57
2021/04/25 19:30:29;;;;;;;2.58;2.17;;;20.60;28.10;;;;;;8368913;28;20037;-57
2021/04/25 19:34:29;;;;;;;3.83;2.70;;;20.60;28.10;;;;;;8391532;28;20370;-58
2021/04/25 19:38:30;;;;;;;2.30;2.10;;;20.60;28.60;;;;;;8390853;28;20107;-58
2021/04/25 19:42:30;;;;;;;3.87;2.57;;;20.60;28.10;;;;;;8389283;28;20045;-58
2021/04/25 19:46:31;;;;;;;3.83;2.30;;;20.60;28.10;;;;;;8395326;28;20480;-59
2021/04/25 19:50:35;;;;;;;4.50;2.73;;;20.60;28.10;;;;;;8394919;28;20051;-59
2021/04/25 19:54:36;;;;;;;3.05;2.22;;;20.60;28.10;;;;;;8374408;28;20268;-58
2021/04/25 19:58:37;;;;;;;4.63;3.00;;;20.60;28.20;;;;;;8375579;28;20047;-59
2021/04/25 20:02:38;;;;;;;;;;;20.60;28.10;;;;;;8397614;28;20043;-57
2021/04/25 20:06:38;;;;;;;3.37;2.27;;;20.60;28.10;;;;;;8399879;28;19912;-59
2021/04/25 20:10:41;;;;;;;3.03;2.20;;;20.60;28.10;;;;;;8396538;28;20051;-59
2021/04/25 20:14:42;;;;;;;3.42;2.47;;;20.60;28.10;;;;;;8396725;28;20553;-57
2021/04/25 20:18:42;;;;;;;4.47;2.33;;;20.60;28.10;;;;;;8395420;28;20098;-57
2021/04/25 20:22:47;;;;;;;3.17;2.53;;;20.60;28.10;;;;;;8401305;28;20317;-59
2021/04/25 20:26:47;;;;;;;2.70;2.22;;;20.60;28.00;;;;;;8396564;28;20040;-57
2021/04/25 20:30:52;;;;;;;3.10;2.33;;;20.60;28.00;;;;;;8394231;28;20072;-57
2021/04/25 20:34:52;;;;;;;3.00;2.45;;;20.60;28.00;;;;;;8396452;28;20443;-58
2021/04/25 20:38:53;;;;;;;3.63;2.30;;;20.60;28.00;;;;;;8371489;28;20033;-55
2021/04/25 20:42:54;;;;;;;2.50;1.97;;;20.50;28.00;;;;;;8398574;28;20366;-57
2021/04/25 20:46:55;;;;;;;3.42;2.42;;;20.50;28.00;;;;;;8396021;28;20032;-59
2021/04/25 20:50:56;;;;;;;3.25;2.30;;;20.50;28.00;;;;;;8394248;28;20040;-58
2021/04/25 20:54:57;;;;;;;2.57;2.10;;;20.50;28.00;;;;;;8395627;28;20039;-59
2021/04/25 20:58:57;;;;;;;3.53;2.47;;;20.50;28.00;;;;;;8400087;28;20409;-58